| time (UTC) | temp F | wind direction | speed MPH | gust MPH | rain 1hr in | rain 24hr in | rain mn in | humidity % | barometer mb |
| 20260509224638 | 61 | 210 | 1.0 | 10.0 | 0.00 | 0.13 | 0.00 | 89 | 1015.7 |
| 20260509223059 | 61 | 211 | 0.0 | 6.0 | 0.00 | 0.13 | 0.00 | 89 | 1015.8 |
| 20260509221612 | 61 | 219 | 1.0 | 5.0 | 0.00 | 0.13 | 0.00 | 89 | 1015.9 |
| 20260509220106 | 61 | 232 | 0.0 | 5.0 | 0.00 | 0.13 | 0.00 | 88 | 1015.8 |
| 20260509214548 | 61 | 210 | 2.0 | 8.0 | 0.00 | 0.13 | 0.13 | 87 | 1015.8 |
| 20260509213041 | 61 | 228 | 1.0 | 5.0 | 0.00 | 0.13 | 0.13 | 87 | 1015.7 |
| 20260509211539 | 61 | 233 | 0.0 | 4.0 | 0.00 | 0.13 | 0.13 | 87 | 1015.6 |
| 20260509210003 | 62 | 215 | 2.0 | 8.0 | 0.00 | 0.13 | 0.13 | 86 | 1015.5 |
| 20260509204504 | 61 | 198 | 4.0 | 11.0 | 0.00 | 0.13 | 0.13 | 86 | 1015.4 |
| 20260509203108 | 61 | 235 | 0.0 | 5.0 | 0.00 | 0.13 | 0.13 | 88 | 1015.3 |
| 20260509201607 | 61 | 239 | 0.0 | 3.0 | 0.00 | 0.13 | 0.13 | 87 | 1015.1 |
| 20260509200105 | 62 | 221 | 0.0 | 5.0 | 0.00 | 0.13 | 0.13 | 87 | 1014.8 |
| 20260509194559 | 62 | 218 | 2.0 | 5.0 | 0.00 | 0.13 | 0.13 | 87 | 1014.6 |
| 20260509193046 | 62 | 235 | 1.0 | 5.0 | 0.00 | 0.13 | 0.13 | 90 | 1014.4 |
| 20260509191608 | 62 | 262 | 1.0 | 5.0 | 0.00 | 0.13 | 0.13 | 90 | 1014.2 |
| 20260509190054 | 61 | 228 | 1.0 | 9.0 | 0.00 | 0.13 | 0.13 | 90 | 1013.9 |
| 20260509184539 | 61 | 230 | 1.0 | 11.0 | 0.00 | 0.13 | 0.13 | 88 | 1013.7 |
| 20260509183112 | 61 | 212 | 0.0 | 9.0 | 0.02 | 0.13 | 0.13 | 87 | 1013.5 |
| 20260509181615 | 61 | 240 | 0.0 | 15.0 | 0.02 | 0.13 | 0.13 | 87 | 1013.5 |
| 20260509180105 | 61 | 232 | 1.0 | 10.0 | 0.02 | 0.13 | 0.13 | 87 | 1013.4 |
| 20260509174603 | 62 | 240 | 2.0 | 15.0 | 0.02 | 0.13 | 0.13 | 86 | 1013.3 |
| 20260509173105 | 64 | 288 | 2.0 | 16.0 | 0.00 | 0.11 | 0.11 | 78 | 1013.0 |
| 20260509171607 | 67 | 225 | 7.0 | 15.0 | 0.00 | 0.11 | 0.11 | 66 | 1012.8 |
| 20260509170049 | 68 | 288 | 10.0 | 19.0 | 0.00 | 0.11 | 0.11 | 63 | 1012.5 |
| 20260509164550 | 69 | 224 | 6.0 | 19.0 | 0.00 | 0.11 | 0.11 | 64 | 1012.4 |
| 20260509163052 | 69 | 253 | 9.0 | 19.0 | 0.00 | 0.11 | 0.11 | 63 | 1012.2 |
| 20260509161540 | 69 | 231 | 8.0 | 23.0 | 0.00 | 0.11 | 0.11 | 63 | 1012.2 |
| 20260509160035 | 69 | 256 | 9.0 | 21.0 | 0.00 | 0.11 | 0.11 | 62 | 1012.0 |
| 20260509154537 | 68 | 229 | 7.0 | 22.0 | 0.00 | 0.11 | 0.11 | 66 | 1012.0 |
| 20260509153013 | 67 | 238 | 6.0 | 23.0 | 0.00 | 0.11 | 0.11 | 73 | 1011.9 |
| 20260509151509 | 68 | 236 | 7.0 | 17.0 | 0.00 | 0.11 | 0.11 | 75 | 1012.1 |
| 20260509150010 | 68 | 205 | 5.0 | 17.0 | 0.00 | 0.11 | 0.11 | 75 | 1012.1 |
| 20260509144544 | 67 | 222 | 5.0 | 17.0 | 0.00 | 0.11 | 0.11 | 78 | 1012.1 |
| 20260509143016 | 66 | 224 | 9.0 | 16.0 | 0.00 | 0.11 | 0.11 | 81 | 1012.0 |
| 20260509141544 | 64 | 236 | 6.0 | 18.0 | 0.00 | 0.11 | 0.11 | 85 | 1012.1 |
| 20260509140018 | 62 | 226 | 4.0 | 17.0 | 0.05 | 0.11 | 0.11 | 87 | 1012.2 |
| 20260509134552 | 62 | 235 | 5.0 | 18.0 | 0.05 | 0.11 | 0.11 | 89 | 1012.0 |
| 20260509133037 | 62 | 226 | 9.0 | 20.0 | 0.06 | 0.11 | 0.11 | 90 | 1012.1 |
| 20260509131552 | 62 | 218 | 8.0 | 19.0 | 0.06 | 0.11 | 0.11 | 89 | 1011.8 |
| 20260509130001 | 64 | 226 | 4.0 | 17.0 | 0.01 | 0.06 | 0.07 | 85 | 1011.5 |
| 20260509124612 | 66 | 243 | 11.0 | 22.0 | 0.01 | 0.06 | 0.06 | 79 | 1011.2 |
| 20260509123110 | 67 | 232 | 9.0 | 19.0 | 0.00 | 0.06 | 0.06 | 73 | 1011.1 |
| 20260509121610 | 67 | 235 | 14.0 | 25.0 | 0.00 | 0.06 | 0.06 | 68 | 1010.9 |
| 20260509120108 | 66 | 232 | 9.0 | 20.0 | 0.00 | 0.06 | 0.06 | 70 | 1011.0 |
| 20260509114612 | 67 | 187 | 10.0 | 25.0 | 0.01 | 0.06 | 0.06 | 70 | 1011.0 |
| 20260509113107 | 66 | 252 | 9.0 | 21.0 | 0.04 | 0.06 | 0.06 | 74 | 1010.9 |
| 20260509111605 | 66 | 219 | 11.0 | 24.0 | 0.04 | 0.06 | 0.06 | 76 | 1011.0 |
| 20260509110104 | 63 | 187 | 7.0 | 16.0 | 0.04 | 0.06 | 0.06 | 87 | 1011.1 |
| 20260509104603 | 62 | 197 | 9.0 | 14.0 | 0.02 | 0.04 | 0.05 | 86 | 1011.5 |
| 20260509103050 | 66 | 214 | 12.0 | 24.0 | 0.00 | 0.02 | 0.02 | 72 | 1011.3 |
| 20260509101552 | 67 | 265 | 12.0 | 23.0 | 0.00 | 0.02 | 0.02 | 65 | 1010.7 |
| 20260509100019 | 67 | 181 | 10.0 | 23.0 | 0.00 | 0.02 | 0.02 | 66 | 1010.6 |
| 20260509094516 | 66 | 239 | 9.0 | 22.0 | 0.00 | 0.02 | 0.02 | 68 | 1010.6 |
| 20260509093018 | 67 | 243 | 14.0 | 22.0 | 0.00 | 0.02 | 0.02 | 66 | 1010.4 |
| 20260509091511 | 67 | 216 | 10.0 | 19.0 | 0.00 | 0.02 | 0.02 | 65 | 1010.5 |
| 20260509090116 | 67 | 229 | 9.0 | 19.0 | 0.00 | 0.02 | 0.02 | 66 | 1010.5 |
| 20260509084620 | 65 | 198 | 12.0 | 19.0 | 0.00 | 0.02 | 0.02 | 68 | 1010.5 |
| 20260509083108 | 66 | 259 | 7.0 | 16.0 | 0.00 | 0.02 | 0.02 | 69 | 1010.4 |
| 20260509081605 | 65 | 248 | 4.0 | 15.0 | 0.00 | 0.02 | 0.02 | 73 | 1010.3 |
| 20260509080100 | 63 | 194 | 1.0 | 9.0 | 0.01 | 0.02 | 0.02 | 79 | 1010.2 |
| 20260509074606 | 62 | 266 | 0.0 | 11.0 | 0.01 | 0.02 | 0.02 | 81 | 1010.2 |
| 20260509073058 | 61 | 177 | 4.0 | 13.0 | 0.02 | 0.02 | 0.02 | 81 | 1010.2 |
| 20260509071607 | 61 | 204 | 3.0 | 11.0 | 0.02 | 0.02 | 0.02 | 84 | 1010.2 |
| 20260509070055 | 60 | 194 | 0.0 | 3.0 | 0.01 | 0.01 | 0.01 | 85 | 1010.3 |
| 20260509064554 | 60 | 224 | 0.0 | 6.0 | 0.01 | 0.01 | 0.01 | 84 | 1010.4 |
| 20260509063042 | 60 | 239 | 0.0 | 4.0 | 0.00 | 0.00 | 0.00 | 82 | 1010.3 |
| 20260509061545 | 61 | 238 | 0.0 | 3.0 | 0.00 | 0.00 | 0.00 | 76 | 1010.1 |
| 20260509060049 | 61 | 238 | 0.0 | 1.0 | 0.00 | 0.00 | 0.00 | 75 | 1009.8 |
| 20260509054609 | 60 | 238 | 0.0 | 1.0 | 0.00 | 0.00 | 0.00 | 74 | 1009.7 |
| 20260509053138 | 60 | 238 | 0.0 | 1.0 | 0.00 | 0.00 | 0.00 | 74 | 1009.6 |
| 20260509051548 | 59 | 221 | 0.0 | 1.0 | 0.00 | 0.00 | 0.00 | 77 | 1009.0 |
| 20260509050046 | 58 | 347 | 0.0 | 0.0 | 0.00 | 0.00 | 0.00 | 77 | 1009.1 |
| 20260509044539 | 57 | 347 | 0.0 | 0.0 | 0.00 | 0.00 | 0.00 | 77 | 1009.1 |
| 20260509043038 | 58 | 333 | 0.0 | 0.0 | 0.00 | 0.00 | 0.00 | 76 | 1009.1 |
| 20260509041535 | 58 | 337 | 0.0 | 1.0 | 0.00 | 0.00 | 0.00 | 76 | 1008.8 |
| 20260509040120 | 58 | 355 | 0.0 | 1.0 | 0.00 | 0.00 | 0.00 | 75 | 1008.8 |
| 20260509034502 | 60 | 143 | 0.0 | 0.0 | 0.00 | 0.00 | 0.00 | 74 | 1008.8 |
| 20260509033031 | 60 | 143 | 0.0 | 0.0 | 0.00 | 0.00 | 0.00 | 73 | 1008.9 |
| 20260509031533 | 59 | 143 | 0.0 | 1.0 | 0.00 | 0.00 | 0.00 | 74 | 1009.0 |
| 20260509030020 | 60 | 143 | 0.0 | 0.0 | 0.00 | 0.00 | 0.00 | 73 | 1009.0 |
| 20260509024501 | 60 | 143 | 0.0 | 1.0 | 0.00 | 0.00 | 0.00 | 72 | 1009.2 |
| 20260509023112 | 60 | 152 | 0.0 | 1.0 | 0.00 | 0.00 | 0.00 | 71 | 1009.4 |
| 20260509021608 | 61 | 128 | 0.0 | 2.0 | 0.00 | 0.00 | 0.00 | 71 | 1009.3 |
| 20260509020055 | 61 | 111 | 0.0 | 2.0 | 0.00 | 0.00 | 0.00 | 71 | 1009.3 |
| 20260509014554 | 61 | 75 | 0.0 | 2.0 | 0.00 | 0.00 | 0.00 | 71 | 1009.5 |
| 20260509013104 | 62 | 98 | 0.0 | 1.0 | 0.00 | 0.00 | 0.00 | 71 | 1009.7 |
| 20260509011558 | 62 | 99 | 0.0 | 2.0 | 0.00 | 0.00 | 0.00 | 71 | 1010.0 |
| 20260509010046 | 62 | 91 | 0.0 | 2.0 | 0.00 | 0.00 | 0.00 | 70 | 1010.4 |
| 20260509004543 | 62 | 97 | 0.0 | 1.0 | 0.00 | 0.00 | 0.00 | 70 | 1010.5 |
| 20260509003054 | 62 | 61 | 0.0 | 1.0 | 0.00 | 0.00 | 0.00 | 70 | 1010.6 |
| 20260509001538 | 62 | 98 | 0.0 | 2.0 | 0.00 | 0.00 | 0.00 | 70 | 1010.7 |
| 20260509000030 | 62 | 260 | 0.0 | 1.0 | 0.00 | 0.00 | 0.00 | 70 | 1011.0 |
| 20260508234532 | 62 | 259 | 0.0 | 0.0 | 0.00 | 0.00 | 0.00 | 70 | 1011.1 |
| 20260508233029 | 62 | 259 | 0.0 | 0.0 | 0.00 | 0.00 | 0.00 | 70 | 1011.2 |
| 20260508231501 | 62 | 259 | 0.0 | 0.0 | 0.00 | 0.00 | 0.00 | 69 | 1011.3 |
| 20260508230032 | 62 | 260 | 0.0 | 0.0 | 0.00 | 0.00 | 0.00 | 69 | 1011.3 |